Tin City, Alaska
Current Conditions -  °F | °C
As of 9:55 AM on Monday 20 Oct 2014 (Local Time) from PATC Reporting Station
Overcast Overcast  
Wind Chill: 14°   Ceiling: 1700
Heat Index: 29°   Visibility: 10mi
Dew Point: 25°   Wind: 24mph
Humidity: 87%   Direction: 30°NNE
Pressure: 29.39"   Gusts: NA
Location:  65.56°N, 167.92°W
Report Text: PATC 201755Z AUTO 03021KT 10SM OVC017 M02/M04 A2939 RMK AO2 SLP957 T10191038 11014 21032 57009
Loading
Personal Weather Stations






























Interactive Weather Map
Tropical Storm Tracking
New forecast layout! Learn more

10-Day Weather Forecast

Advertisements
Track Severe Weather on mobile